King Philip — WDG3768 — position and weather

sailwx.info

Track history (hours):
 
Tides and Currents Weather Stations Pressure Air Temp Water Temp Dewpoint Dewpoint Depression Visibility Wind Speed Wind Dir Waves Ship Positions

King Philip

Owner: King Philip Inc., Salinas, CA. More information available from US FCC via Universal Licensing System and Coast Guard Vessel Documentation Center.

Last reported at 2017-Dec-29 19:34 UTC. Time now 2018-Jan-24 12:06 UTC.
Position N 34°15' W 119°16'.
Warning: this ship's position is 25 days out of date.

Length 26 m.

Type: Fishing. MMSI: 367529450.

Date/timePositionNaut miles runAvg speedWind from/ knotsBaromVisibWave heightAir tempDewpointWater temp
2017-Dec-29 19:34N 34°15' W 119°16'0 1.6
2017-Dec-29 19:30N 34°15' W 119°16'4 6.6
2017-Dec-29 18:55N 34°11' W 119°15'3 3.5
2017-Dec-29 18:07N 34°09' W 119°13'0 0.0
2017-Dec-29 17:43N 34°09' W 119°13'0 0.0
2017-Dec-29 17:23N 34°09' W 119°13'3 8.0
2017-Dec-29 17:00N 34°07' W 119°16'4 8.9
2017-Dec-29 16:30N 34°05' W 119°20'5 8.9
2017-Dec-29 15:58N 34°02' W 119°25'4 9.1
2017-Dec-29 15:30N 34°00' W 119°30'20 5.8
2017-Dec-29 12:09N 33°58' W 119°53'1 8.5
2017-Dec-29 12:00N 33°58' W 119°55'4 4.4
2017-Dec-29 11:09N 33°59' W 119°59'0 0.4
2017-Dec-29 10:54N 33°59' W 119°59'0 0.0
2017-Dec-29 10:28N 33°59' W 119°59'2 4.4
2017-Dec-29 09:59N 33°57' W 119°58'1 1.0
2017-Dec-29 09:27N 33°57' W 119°57'0 0.1
2017-Dec-29 07:59N 33°57' W 119°57'0 0.7
2017-Dec-29 07:28N 33°57' W 119°57'0 0.2
2017-Dec-29 06:58N 33°57' W 119°57'0 0.9
2017-Dec-29 06:28N 33°57' W 119°57'0 0.0
2017-Dec-29 05:58N 33°57' W 119°57'0 0.5
2017-Dec-29 05:29N 33°57' W 119°57'0 0.2
2017-Dec-29 04:32N 33°57' W 119°57'0 0.0
2017-Dec-29 04:30N 33°57' W 119°57'4 7.3
2017-Dec-29 04:00N 34°00' W 119°60'2 0.9
2017-Dec-29 01:50N 34°02' W 120°01'3 8.6
2017-Dec-29 01:29N 33°60' W 119°58'3 7.1
2017-Dec-29 01:00N 33°56' W 119°57'25 8.9
2017-Dec-28 22:11N 34°01' W 119°28'3 9.5
2017-Dec-28 21:53N 34°02' W 119°25'4 9.5
2017-Dec-28 21:30N 34°04' W 119°21'5 9.4
2017-Dec-28 21:00N 34°06' W 119°16'4 3.5
2017-Dec-28 19:54N 34°09' W 119°13'0 0.0
2017-Dec-28 19:03N 34°09' W 119°13'0 0.0
2017-Dec-28 18:51N 34°09' W 119°13'1 1.2
2017-Dec-28 18:21N 34°08' W 119°13'3 8.5
2017-Dec-28 18:00N 34°07' W 119°16'5 8.5
2017-Dec-28 17:28N 34°05' W 119°21'4 8.7
2017-Dec-28 16:59N 34°03' W 119°25'4 8.9
2017-Dec-28 16:30N 34°00' W 119°30'19 5.3
2017-Dec-28 12:53N 33°57' W 119°53'4 8.6
2017-Dec-28 12:26N 33°57' W 119°57'0 0.3
2017-Dec-28 11:17N 33°57' W 119°57'0 0.0
2017-Dec-28 10:56N 33°57' W 119°57'0 0.0
2017-Dec-28 10:29N 33°57' W 119°57'0 0.0
2017-Dec-28 09:59N 33°57' W 119°57'0 0.0
2017-Dec-28 09:26N 33°57' W 119°57'0 0.0
2017-Dec-28 08:59N 33°57' W 119°57'0 0.0
2017-Dec-28 08:29N 33°57' W 119°57'0 0.2
2017-Dec-28 07:13N 33°57' W 119°57'1 4.0
2017-Dec-28 06:52N 33°59' W 119°57'1 3.1
2017-Dec-28 06:29N 33°57' W 119°57'0 0.2
2017-Dec-28 05:56N 33°57' W 119°57'0 0.3
2017-Dec-28 05:29N 33°57' W 119°57'0 0.2
2017-Dec-28 04:24N 33°57' W 119°57'0 0.5
2017-Dec-28 03:38N 33°57' W 119°57'0 0.3
2017-Dec-28 03:16N 33°57' W 119°57'0 1.3
2017-Dec-28 03:00N 33°57' W 119°57'23 8.6
2017-Dec-28 00:19N 34°01' W 119°30'4 8.9
2017-Dec-27 23:51N 34°04' W 119°27'6 9.2
2017-Dec-27 23:14N 34°08' W 119°23'4 9.0
2017-Dec-27 22:49N 34°11' W 119°20'3 9.1
2017-Dec-27 22:29N 34°14' W 119°17'2 0.4
2017-Dec-27 18:36N 34°15' W 119°16'0 3.6
2017-Dec-27 18:28N 34°15' W 119°16'4 8.5
2017-Dec-27 17:57N 34°11' W 119°16'3 3.2
2017-Dec-27 16:52N 34°09' W 119°13'0 0.0
2017-Dec-27 15:07N 34°09' W 119°13'0 0.7
2017-Dec-27 14:31N 34°08' W 119°13'0 0.0
2017-Dec-27 14:16N 34°08' W 119°13'0 0.0
2017-Dec-27 13:43N 34°08' W 119°13'0 0.1
2017-Dec-27 13:21N 34°08' W 119°13'0 0.4
2017-Dec-27 12:20N 34°09' W 119°13'0 1.0
2017-Dec-27 11:57N 34°09' W 119°13'4 8.2
2017-Dec-27 11:30N 34°07' W 119°17'4 8.1
2017-Dec-27 10:59N 34°05' W 119°21'4 8.0
2017-Dec-27 10:30N 34°03' W 119°25'24 8.3
2017-Dec-27 07:38N 33°57' W 119°53'1 8.4
2017-Dec-27 07:30N 33°57' W 119°54'2 4.5
2017-Dec-27 06:58N 33°57' W 119°57'0 0.3
2017-Dec-27 06:19N 33°57' W 119°57'0 0.0
2017-Dec-27 05:55N 33°57' W 119°57'0 0.2
2017-Dec-27 05:29N 33°57' W 119°57'0 0.8
2017-Dec-27 04:58N 33°58' W 119°57'0 0.2
2017-Dec-27 04:25N 33°58' W 119°57'0 0.4
2017-Dec-27 03:55N 33°57' W 119°57'0 0.9
2017-Dec-27 03:29N 33°57' W 119°57'3 2.3
2017-Dec-27 02:02N 33°57' W 119°53'0 9.7
2017-Dec-27 02:00N 33°57' W 119°53'3 3.5
2017-Dec-27 01:02N 33°57' W 119°57'0 0.6
2017-Dec-27 00:43N 33°56' W 119°57'0 0.6
2017-Dec-27 00:30N 33°56' W 119°57'0 0.1
2017-Dec-26 23:28N 33°57' W 119°57'0 0.0
2017-Dec-26 22:58N 33°57' W 119°57'2 4.6
2017-Dec-26 22:29N 33°59' W 119°58'3 5.2
2017-Dec-26 21:56N 33°58' W 119°54'20 8.3
2017-Dec-26 19:32N 34°01' W 119°30'0 8.7
2017-Dec-26 19:30N 34°01' W 119°30'4 8.5
2017-Dec-26 19:00N 34°04' W 119°27'4 8.9
2017-Dec-26 18:30N 34°08' W 119°24'4 8.9
2017-Dec-26 18:00N 34°11' W 119°20'5 9.2
2017-Dec-26 17:30N 34°14' W 119°17'  
2017-Dec-21 22:40N 34°15' W 119°16'0 0.0
2017-Dec-21 22:21N 34°15' W 119°16'1 3.0
2017-Dec-21 22:00N 34°14' W 119°16'4 8.9
2017-Dec-21 21:30N 34°09' W 119°15'2 3.2
2017-Dec-21 20:55N 34°09' W 119°13'0 0.0
2017-Dec-21 20:10N 34°09' W 119°13'0 0.0
2017-Dec-21 19:49N 34°09' W 119°13'0 0.0
2017-Dec-21 19:20N 34°09' W 119°13'2 7.2
2017-Dec-21 19:00N 34°07' W 119°15'4 7.8
2017-Dec-21 18:30N 34°05' W 119°19'4 7.4
2017-Dec-21 17:58N 34°04' W 119°23'4 7.7
2017-Dec-21 17:30N 34°02' W 119°27'4 0.2
2017-Dec-20 23:41N 34°00' W 119°31'3 9.7
2017-Dec-20 23:24N 34°02' W 119°29'3 8.2
2017-Dec-20 23:00N 34°05' W 119°26'4 8.1
2017-Dec-20 22:27N 34°08' W 119°23'4 8.1
2017-Dec-20 22:00N 34°11' W 119°20'4 8.6
2017-Dec-20 21:29N 34°14' W 119°17'1 1.4
2017-Dec-20 20:57N 34°15' W 119°16'0 0.1
2017-Dec-20 20:29N 34°15' W 119°16'0 0.1
2017-Dec-20 19:53N 34°14' W 119°16'0 0.0
2017-Dec-20 19:29N 34°14' W 119°16'6 1.6
2017-Dec-20 15:42N 34°09' W 119°13'0 0.3
2017-Dec-20 14:06N 34°08' W 119°13'0 1.4
2017-Dec-20 13:46N 34°09' W 119°13'2 5.3
2017-Dec-20 13:27N 34°08' W 119°15'4 8.8
2017-Dec-20 12:57N 34°05' W 119°19'5 8.8
2017-Dec-20 12:21N 34°03' W 119°25'24 2.7
2017-Dec-20 03:25N 33°58' W 119°53'4 8.9
2017-Dec-20 02:58N 33°59' W 119°58'0 0.1
2017-Dec-20 02:30N 33°59' W 119°58'2 4.4
2017-Dec-20 01:56N 33°57' W 119°56'22 9.0
2017-Dec-19 23:28N 34°00' W 119°30'4 9.4
2017-Dec-19 23:00N 34°03' W 119°25'5 9.2
2017-Dec-19 22:30N 34°05' W 119°20'5 9.4
2017-Dec-19 21:58N 34°07' W 119°15'2 2.3
2017-Dec-19 20:56N 34°09' W 119°13'  
Track history (hours):
 
Tides and Currents Weather Stations Pressure Air Temp Water Temp Dewpoint Dewpoint Depression Visibility Wind Speed Wind Dir Waves Ship Positions

King Philip

Owner: King Philip Inc., Salinas, CA. More information available from US FCC via Universal Licensing System and Coast Guard Vessel Documentation Center.

Last reported at 2017-Dec-29 19:34 UTC. Time now 2018-Jan-24 12:06 UTC.
Position N 34°15' W 119°16'.
Warning: this ship's position is 25 days out of date.

Length 26 m.

Type: Fishing. MMSI: 367529450.

Date/timePositionNaut miles runAvg speedWind from/ knotsBaromVisibWave heightAir tempDewpointWater temp
2017-Dec-29 19:34N 34°15' W 119°16'0 1.6
2017-Dec-29 19:30N 34°15' W 119°16'4 6.6
2017-Dec-29 18:55N 34°11' W 119°15'3 3.5
2017-Dec-29 18:07N 34°09' W 119°13'0 0.0
2017-Dec-29 17:43N 34°09' W 119°13'0 0.0
2017-Dec-29 17:23N 34°09' W 119°13'3 8.0
2017-Dec-29 17:00N 34°07' W 119°16'4 8.9
2017-Dec-29 16:30N 34°05' W 119°20'5 8.9
2017-Dec-29 15:58N 34°02' W 119°25'4 9.1
2017-Dec-29 15:30N 34°00' W 119°30'20 5.8
2017-Dec-29 12:09N 33°58' W 119°53'1 8.5
2017-Dec-29 12:00N 33°58' W 119°55'4 4.4
2017-Dec-29 11:09N 33°59' W 119°59'0 0.4
2017-Dec-29 10:54N 33°59' W 119°59'0 0.0
2017-Dec-29 10:28N 33°59' W 119°59'2 4.4
2017-Dec-29 09:59N 33°57' W 119°58'1 1.0
2017-Dec-29 09:27N 33°57' W 119°57'0 0.1
2017-Dec-29 07:59N 33°57' W 119°57'0 0.7
2017-Dec-29 07:28N 33°57' W 119°57'0 0.2
2017-Dec-29 06:58N 33°57' W 119°57'0 0.9
2017-Dec-29 06:28N 33°57' W 119°57'0 0.0
2017-Dec-29 05:58N 33°57' W 119°57'0 0.5
2017-Dec-29 05:29N 33°57' W 119°57'0 0.2
2017-Dec-29 04:32N 33°57' W 119°57'0 0.0
2017-Dec-29 04:30N 33°57' W 119°57'4 7.3
2017-Dec-29 04:00N 34°00' W 119°60'2 0.9
2017-Dec-29 01:50N 34°02' W 120°01'3 8.6
2017-Dec-29 01:29N 33°60' W 119°58'3 7.1
2017-Dec-29 01:00N 33°56' W 119°57'25 8.9
2017-Dec-28 22:11N 34°01' W 119°28'3 9.5
2017-Dec-28 21:53N 34°02' W 119°25'4 9.5
2017-Dec-28 21:30N 34°04' W 119°21'5 9.4
2017-Dec-28 21:00N 34°06' W 119°16'4 3.5
2017-Dec-28 19:54N 34°09' W 119°13'0 0.0
2017-Dec-28 19:03N 34°09' W 119°13'0 0.0
2017-Dec-28 18:51N 34°09' W 119°13'1 1.2
2017-Dec-28 18:21N 34°08' W 119°13'3 8.5
2017-Dec-28 18:00N 34°07' W 119°16'5 8.5
2017-Dec-28 17:28N 34°05' W 119°21'4 8.7
2017-Dec-28 16:59N 34°03' W 119°25'4 8.9
2017-Dec-28 16:30N 34°00' W 119°30'19 5.3
2017-Dec-28 12:53N 33°57' W 119°53'4 8.6
2017-Dec-28 12:26N 33°57' W 119°57'0 0.3
2017-Dec-28 11:17N 33°57' W 119°57'0 0.0
2017-Dec-28 10:56N 33°57' W 119°57'0 0.0
2017-Dec-28 10:29N 33°57' W 119°57'0 0.0
2017-Dec-28 09:59N 33°57' W 119°57'0 0.0
2017-Dec-28 09:26N 33°57' W 119°57'0 0.0
2017-Dec-28 08:59N 33°57' W 119°57'0 0.0
2017-Dec-28 08:29N 33°57' W 119°57'0 0.2
2017-Dec-28 07:13N 33°57' W 119°57'1 4.0
2017-Dec-28 06:52N 33°59' W 119°57'1 3.1
2017-Dec-28 06:29N 33°57' W 119°57'0 0.2
2017-Dec-28 05:56N 33°57' W 119°57'0 0.3
2017-Dec-28 05:29N 33°57' W 119°57'0 0.2
2017-Dec-28 04:24N 33°57' W 119°57'0 0.5
2017-Dec-28 03:38N 33°57' W 119°57'0 0.3
2017-Dec-28 03:16N 33°57' W 119°57'0 1.3
2017-Dec-28 03:00N 33°57' W 119°57'23 8.6
2017-Dec-28 00:19N 34°01' W 119°30'4 8.9
2017-Dec-27 23:51N 34°04' W 119°27'6 9.2
2017-Dec-27 23:14N 34°08' W 119°23'4 9.0
2017-Dec-27 22:49N 34°11' W 119°20'3 9.1
2017-Dec-27 22:29N 34°14' W 119°17'2 0.4
2017-Dec-27 18:36N 34°15' W 119°16'0 3.6
2017-Dec-27 18:28N 34°15' W 119°16'4 8.5
2017-Dec-27 17:57N 34°11' W 119°16'3 3.2
2017-Dec-27 16:52N 34°09' W 119°13'0 0.0
2017-Dec-27 15:07N 34°09' W 119°13'0 0.7
2017-Dec-27 14:31N 34°08' W 119°13'0 0.0
2017-Dec-27 14:16N 34°08' W 119°13'0 0.0
2017-Dec-27 13:43N 34°08' W 119°13'0 0.1
2017-Dec-27 13:21N 34°08' W 119°13'0 0.4
2017-Dec-27 12:20N 34°09' W 119°13'0 1.0
2017-Dec-27 11:57N 34°09' W 119°13'4 8.2
2017-Dec-27 11:30N 34°07' W 119°17'4 8.1
2017-Dec-27 10:59N 34°05' W 119°21'4 8.0
2017-Dec-27 10:30N 34°03' W 119°25'24 8.3
2017-Dec-27 07:38N 33°57' W 119°53'1 8.4
2017-Dec-27 07:30N 33°57' W 119°54'2 4.5
2017-Dec-27 06:58N 33°57' W 119°57'0 0.3
2017-Dec-27 06:19N 33°57' W 119°57'0 0.0
2017-Dec-27 05:55N 33°57' W 119°57'0 0.2
2017-Dec-27 05:29N 33°57' W 119°57'0 0.8
2017-Dec-27 04:58N 33°58' W 119°57'0 0.2
2017-Dec-27 04:25N 33°58' W 119°57'0 0.4
2017-Dec-27 03:55N 33°57' W 119°57'0 0.9
2017-Dec-27 03:29N 33°57' W 119°57'3 2.3
2017-Dec-27 02:02N 33°57' W 119°53'0 9.7
2017-Dec-27 02:00N 33°57' W 119°53'3 3.5
2017-Dec-27 01:02N 33°57' W 119°57'0 0.6
2017-Dec-27 00:43N 33°56' W 119°57'0 0.6
2017-Dec-27 00:30N 33°56' W 119°57'0 0.1
2017-Dec-26 23:28N 33°57' W 119°57'0 0.0
2017-Dec-26 22:58N 33°57' W 119°57'2 4.6
2017-Dec-26 22:29N 33°59' W 119°58'3 5.2
2017-Dec-26 21:56N 33°58' W 119°54'20 8.3
2017-Dec-26 19:32N 34°01' W 119°30'0 8.7
2017-Dec-26 19:30N 34°01' W 119°30'4 8.5
2017-Dec-26 19:00N 34°04' W 119°27'4 8.9
2017-Dec-26 18:30N 34°08' W 119°24'4 8.9
2017-Dec-26 18:00N 34°11' W 119°20'5 9.2
2017-Dec-26 17:30N 34°14' W 119°17'  
2017-Dec-21 22:40N 34°15' W 119°16'0 0.0
2017-Dec-21 22:21N 34°15' W 119°16'1 3.0
2017-Dec-21 22:00N 34°14' W 119°16'4 8.9
2017-Dec-21 21:30N 34°09' W 119°15'2 3.2
2017-Dec-21 20:55N 34°09' W 119°13'0 0.0
2017-Dec-21 20:10N 34°09' W 119°13'0 0.0
2017-Dec-21 19:49N 34°09' W 119°13'0 0.0
2017-Dec-21 19:20N 34°09' W 119°13'2 7.2
2017-Dec-21 19:00N 34°07' W 119°15'4 7.8
2017-Dec-21 18:30N 34°05' W 119°19'4 7.4
2017-Dec-21 17:58N 34°04' W 119°23'4 7.7
2017-Dec-21 17:30N 34°02' W 119°27'4 0.2
2017-Dec-20 23:41N 34°00' W 119°31'3 9.7
2017-Dec-20 23:24N 34°02' W 119°29'3 8.2
2017-Dec-20 23:00N 34°05' W 119°26'4 8.1
2017-Dec-20 22:27N 34°08' W 119°23'4 8.1
2017-Dec-20 22:00N 34°11' W 119°20'4 8.6
2017-Dec-20 21:29N 34°14' W 119°17'1 1.4
2017-Dec-20 20:57N 34°15' W 119°16'0 0.1
2017-Dec-20 20:29N 34°15' W 119°16'0 0.1
2017-Dec-20 19:53N 34°14' W 119°16'0 0.0
2017-Dec-20 19:29N 34°14' W 119°16'6 1.6
2017-Dec-20 15:42N 34°09' W 119°13'0 0.3
2017-Dec-20 14:06N 34°08' W 119°13'0 1.4
2017-Dec-20 13:46N 34°09' W 119°13'2 5.3
2017-Dec-20 13:27N 34°08' W 119°15'4 8.8
2017-Dec-20 12:57N 34°05' W 119°19'5 8.8
2017-Dec-20 12:21N 34°03' W 119°25'24 2.7
2017-Dec-20 03:25N 33°58' W 119°53'4 8.9
2017-Dec-20 02:58N 33°59' W 119°58'0 0.1
2017-Dec-20 02:30N 33°59' W 119°58'2 4.4
2017-Dec-20 01:56N 33°57' W 119°56'22 9.0
2017-Dec-19 23:28N 34°00' W 119°30'4 9.4
2017-Dec-19 23:00N 34°03' W 119°25'5 9.2
2017-Dec-19 22:30N 34°05' W 119°20'5 9.4
2017-Dec-19 21:58N 34°07' W 119°15'2 2.3
2017-Dec-19 20:56N 34°09' W 119°13'  

Dump ship's entire track history